sensor_id;sensor_type;location;lat;lon;timestamp;pressure;altitude;pressure_sealevel;temperature;humidity
7018;BME280;3549;42.162;24.726;2023-04-19T00:00:03;47853.53;;;-141.97;100.00
7018;BME280;3549;42.162;24.726;2023-04-19T00:02:32;47795.88;;;-141.97;100.00
7018;BME280;3549;42.162;24.726;2023-04-19T00:04:58;47851.59;;;-141.97;100.00
7018;BME280;3549;42.162;24.726;2023-04-19T00:07:23;47857.38;;;-141.97;100.00
7018;BME280;3549;42.162;24.726;2023-04-19T00:09:49;47861.22;;;-141.97;100.00
7018;BME280;3549;42.162;24.726;2023-04-19T00:12:14;47872.75;;;-141.97;100.00
7018;BME280;3549;42.162;24.726;2023-04-19T00:14:40;47842.00;;;-141.97;100.00
7018;BME280;3549;42.162;24.726;2023-04-19T00:17:05;47866.97;;;-141.97;100.00
7018;BME280;3549;42.162;24.726;2023-04-19T00:19:30;47874.69;;;-141.97;100.00
7018;BME280;3549;42.162;24.726;2023-04-19T00:21:56;47803.56;;;-141.97;100.00
7018;BME280;3549;42.162;24.726;2023-04-19T00:24:21;47842.00;;;-141.97;100.00
7018;BME280;3549;42.162;24.726;2023-04-19T00:26:47;47815.09;;;-141.97;100.00
7018;BME280;3549;42.162;24.726;2023-04-19T00:29:12;47857.38;;;-141.97;100.00
7018;BME280;3549;42.162;24.726;2023-04-19T00:31:37;47830.47;;;-141.97;100.00
7018;BME280;3549;42.162;24.726;2023-04-19T00:34:04;47797.78;;;-141.97;100.00
7018;BME280;3549;42.162;24.726;2023-04-19T00:36:30;47855.44;;;-141.97;100.00
7018;BME280;3549;42.162;24.726;2023-04-19T00:38:55;47834.31;;;-141.97;100.00
7018;BME280;3549;42.162;24.726;2023-04-19T00:41:21;47815.09;;;-141.97;100.00
7018;BME280;3549;42.162;24.726;2023-04-19T00:43:46;47876.59;;;-141.97;100.00
7018;BME280;3549;42.162;24.726;2023-04-19T00:46:13;47884.28;;;-141.97;100.00
7018;BME280;3549;42.162;24.726;2023-04-19T00:48:38;47886.22;;;-141.97;100.00
7018;BME280;3549;42.162;24.726;2023-04-19T00:51:04;47847.75;;;-141.97;100.00
7018;BME280;3549;42.162;24.726;2023-04-19T00:53:30;47849.69;;;-141.97;100.00
7018;BME280;3549;42.162;24.726;2023-04-19T00:55:58;47876.59;;;-141.97;100.00
7018;BME280;3549;42.162;24.726;2023-04-19T00:58:27;47861.22;;;-141.97;100.00
7018;BME280;3549;42.162;24.726;2023-04-19T01:00:54;47868.91;;;-141.97;100.00
7018;BME280;3549;42.162;24.726;2023-04-19T01:03:19;47842.00;;;-141.97;100.00
7018;BME280;3549;42.162;24.726;2023-04-19T01:05:46;47874.69;;;-141.97;100.00
7018;BME280;3549;42.162;24.726;2023-04-19T01:08:12;47832.38;;;-141.97;100.00
7018;BME280;3549;42.162;24.726;2023-04-19T01:10:38;47853.53;;;-141.97;100.00
7018;BME280;3549;42.162;24.726;2023-04-19T01:13:03;47891.97;;;-141.97;100.00
7018;BME280;3549;42.162;24.726;2023-04-19T01:15:29;47859.28;;;-141.97;100.00
7018;BME280;3549;42.162;24.726;2023-04-19T01:17:55;47842.00;;;-141.97;100.00
7018;BME280;3549;42.162;24.726;2023-04-19T01:20:21;47878.53;;;-141.97;100.00
7018;BME280;3549;42.162;24.726;2023-04-19T01:22:46;47982.31;;;-141.97;100.00
7018;BME280;3549;42.162;24.726;2023-04-19T01:25:11;47838.16;;;-141.97;100.00
7018;BME280;3549;42.162;24.726;2023-04-19T01:27:37;47865.06;;;-141.97;100.00
7018;BME280;3549;42.162;24.726;2023-04-19T01:30:02;47861.22;;;-141.97;100.00
7018;BME280;3549;42.162;24.726;2023-04-19T01:32:28;47834.31;;;-141.97;100.00
7018;BME280;3549;42.162;24.726;2023-04-19T01:34:53;47776.63;;;-141.97;100.00
7018;BME280;3549;42.162;24.726;2023-04-19T01:37:19;47876.59;;;-141.97;100.00
7018;BME280;3549;42.162;24.726;2023-04-19T01:39:44;47826.63;;;-141.97;100.00
7018;BME280;3549;42.162;24.726;2023-04-19T01:42:10;47843.91;;;-141.97;100.00
7018;BME280;3549;42.162;24.726;2023-04-19T01:44:35;47843.91;;;-141.97;100.00
7018;BME280;3549;42.162;24.726;2023-04-19T01:47:01;47866.97;;;-141.97;100.00
7018;BME280;3549;42.162;24.726;2023-04-19T01:49:26;47880.44;;;-141.97;100.00
7018;BME280;3549;42.162;24.726;2023-04-19T01:51:52;47828.53;;;-141.97;100.00
7018;BME280;3549;42.162;24.726;2023-04-19T01:54:17;47811.25;;;-141.97;100.00
7018;BME280;3549;42.162;24.726;2023-04-19T01:56:42;47817.00;;;-141.97;100.00
7018;BME280;3549;42.162;24.726;2023-04-19T01:59:08;47830.47;;;-141.97;100.00
7018;BME280;3549;42.162;24.726;2023-04-19T02:01:33;47945.81;;;-141.97;100.00
7018;BME280;3549;42.162;24.726;2023-04-19T02:03:59;47876.59;;;-141.97;100.00
7018;BME280;3549;42.162;24.726;2023-04-19T02:06:24;47865.06;;;-141.97;100.00
7018;BME280;3549;42.162;24.726;2023-04-19T02:08:51;47865.06;;;-141.97;100.00
7018;BME280;3549;42.162;24.726;2023-04-19T02:11:16;47830.47;;;-141.97;100.00
7018;BME280;3549;42.162;24.726;2023-04-19T02:13:41;47849.69;;;-141.97;100.00
7018;BME280;3549;42.162;24.726;2023-04-19T02:16:08;47980.41;;;-141.97;100.00
7018;BME280;3549;42.162;24.726;2023-04-19T02:18:34;47842.00;;;-141.97;100.00
7018;BME280;3549;42.162;24.726;2023-04-19T02:21:06;47868.91;;;-141.97;100.00
7018;BME280;3549;42.162;24.726;2023-04-19T02:23:32;47843.91;;;-141.97;100.00
7018;BME280;3549;42.162;24.726;2023-04-19T02:25:57;47853.53;;;-141.97;100.00
7018;BME280;3549;42.162;24.726;2023-04-19T02:28:23;47826.63;;;-141.97;100.00
7018;BME280;3549;42.162;24.726;2023-04-19T02:30:48;47811.25;;;-141.97;100.00
7018;BME280;3549;42.162;24.726;2023-04-19T02:33:14;47834.31;;;-141.97;100.00
7018;BME280;3549;42.162;24.726;2023-04-19T02:35:40;47834.31;;;-141.97;100.00
7018;BME280;3549;42.162;24.726;2023-04-19T02:38:05;47830.47;;;-141.97;100.00
7018;BME280;3549;42.162;24.726;2023-04-19T02:40:31;47880.44;;;-141.97;100.00
7018;BME280;3549;42.162;24.726;2023-04-19T02:42:56;47865.06;;;-141.97;100.00
7018;BME280;3549;42.162;24.726;2023-04-19T02:45:21;47853.53;;;-141.97;100.00
7018;BME280;3549;42.162;24.726;2023-04-19T02:47:47;47890.06;;;-141.97;100.00
7018;BME280;3549;42.162;24.726;2023-04-19T02:50:15;47824.69;;;-141.97;100.00
7018;BME280;3549;42.162;24.726;2023-04-19T02:52:40;47851.59;;;-141.97;100.00
7018;BME280;3549;42.162;24.726;2023-04-19T02:55:06;47845.84;;;-141.97;100.00
7018;BME280;3549;42.162;24.726;2023-04-19T02:57:31;47874.69;;;-141.97;100.00
7018;BME280;3549;42.162;24.726;2023-04-19T02:59:57;47861.22;;;-141.97;100.00
7018;BME280;3549;42.162;24.726;2023-04-19T03:02:26;47857.38;;;-141.97;100.00
7018;BME280;3549;42.162;24.726;2023-04-19T03:04:51;47893.91;;;-141.97;100.00
7018;BME280;3549;42.162;24.726;2023-04-19T03:07:18;47840.06;;;-141.97;100.00
7018;BME280;3549;42.162;24.726;2023-04-19T03:09:43;47842.00;;;-141.97;100.00
7018;BME280;3549;42.162;24.726;2023-04-19T03:12:08;47868.91;;;-141.97;100.00
7018;BME280;3549;42.162;24.726;2023-04-19T03:14:34;47884.28;;;-141.97;100.00
7018;BME280;3549;42.162;24.726;2023-04-19T03:16:59;47849.69;;;-141.97;100.00
7018;BME280;3549;42.162;24.726;2023-04-19T03:19:25;47842.00;;;-141.97;100.00
7018;BME280;3549;42.162;24.726;2023-04-19T03:21:50;47855.44;;;-141.97;100.00
7018;BME280;3549;42.162;24.726;2023-04-19T03:24:19;47822.78;;;-141.97;100.00
7018;BME280;3549;42.162;24.726;2023-04-19T03:26:51;47838.16;;;-141.97;100.00
7018;BME280;3549;42.162;24.726;2023-04-19T03:29:16;47853.53;;;-141.97;100.00
7018;BME280;3549;42.162;24.726;2023-04-19T03:31:41;47872.75;;;-141.97;100.00
7018;BME280;3549;42.162;24.726;2023-04-19T03:34:07;47817.00;;;-141.97;100.00
7018;BME280;3549;42.162;24.726;2023-04-19T03:36:32;47784.34;;;-141.97;100.00
7018;BME280;3549;42.162;24.726;2023-04-19T03:38:57;47855.44;;;-141.97;100.00
7018;BME280;3549;42.162;24.726;2023-04-19T03:41:24;47866.97;;;-141.97;100.00
7018;BME280;3549;42.162;24.726;2023-04-19T03:43:50;47880.44;;;-141.97;100.00
7018;BME280;3549;42.162;24.726;2023-04-19T03:46:15;47865.06;;;-141.97;100.00
7018;BME280;3549;42.162;24.726;2023-04-19T03:48:41;47853.53;;;-141.97;100.00
7018;BME280;3549;42.162;24.726;2023-04-19T03:51:06;47830.47;;;-141.97;100.00
7018;BME280;3549;42.162;24.726;2023-04-19T03:53:32;47876.59;;;-141.97;100.00
7018;BME280;3549;42.162;24.726;2023-04-19T03:55:57;47818.94;;;-141.97;100.00
7018;BME280;3549;42.162;24.726;2023-04-19T03:58:23;47861.22;;;-141.97;100.00
7018;BME280;3549;42.162;24.726;2023-04-19T04:00:48;47874.69;;;-141.97;100.00
7018;BME280;3549;42.162;24.726;2023-04-19T04:03:13;47859.28;;;-141.97;100.00
7018;BME280;3549;42.162;24.726;2023-04-19T04:05:39;47955.41;;;-141.97;100.00
7018;BME280;3549;42.162;24.726;2023-04-19T04:08:04;47855.44;;;-141.97;100.00
7018;BME280;3549;42.162;24.726;2023-04-19T04:10:30;47799.72;;;-141.97;100.00
7018;BME280;3549;42.162;24.726;2023-04-19T04:12:55;47884.28;;;-141.97;100.00
7018;BME280;3549;42.162;24.726;2023-04-19T04:15:21;47843.91;;;-141.97;100.00
7018;BME280;3549;42.162;24.726;2023-04-19T04:17:46;47849.69;;;-141.97;100.00
7018;BME280;3549;42.162;24.726;2023-04-19T04:20:12;47838.16;;;-141.97;100.00
7018;BME280;3549;42.162;24.726;2023-04-19T04:22:42;47842.00;;;-141.97;100.00
7018;BME280;3549;42.162;24.726;2023-04-19T04:25:08;47842.00;;;-141.97;100.00
7018;BME280;3549;42.162;24.726;2023-04-19T04:27:34;47834.31;;;-141.97;100.00
7018;BME280;3549;42.162;24.726;2023-04-19T04:30:00;47826.63;;;-141.97;100.00
7018;BME280;3549;42.162;24.726;2023-04-19T04:32:26;47857.38;;;-141.97;100.00
7018;BME280;3549;42.162;24.726;2023-04-19T04:34:51;47822.78;;;-141.97;100.00
7018;BME280;3549;42.162;24.726;2023-04-19T04:37:17;47895.81;;;-141.97;100.00
7018;BME280;3549;42.162;24.726;2023-04-19T04:39:42;47822.78;;;-141.97;100.00
7018;BME280;3549;42.162;24.726;2023-04-19T04:42:08;47847.75;;;-141.97;100.00
7018;BME280;3549;42.162;24.726;2023-04-19T04:44:34;47836.22;;;-141.97;100.00
7018;BME280;3549;42.162;24.726;2023-04-19T04:47:00;47845.84;;;-141.97;100.00
7018;BME280;3549;42.162;24.726;2023-04-19T04:49:25;47815.09;;;-141.97;100.00
7018;BME280;3549;42.162;24.726;2023-04-19T04:51:51;47753.56;;;-141.97;100.00
7018;BME280;3549;42.162;24.726;2023-04-19T04:54:16;47842.00;;;-141.97;100.00
7018;BME280;3549;42.162;24.726;2023-04-19T04:56:41;47840.06;;;-141.97;100.00
7018;BME280;3549;42.162;24.726;2023-04-19T04:59:07;47845.84;;;-141.97;100.00
7018;BME280;3549;42.162;24.726;2023-04-19T05:01:32;47865.06;;;-141.97;100.00
7018;BME280;3549;42.162;24.726;2023-04-19T05:03:58;47811.25;;;-141.97;100.00
7018;BME280;3549;42.162;24.726;2023-04-19T05:06:23;47840.06;;;-141.97;100.00
7018;BME280;3549;42.162;24.726;2023-04-19T05:08:49;47822.78;;;-141.97;100.00
7018;BME280;3549;42.162;24.726;2023-04-19T05:11:14;47824.69;;;-141.97;100.00
7018;BME280;3549;42.162;24.726;2023-04-19T05:13:40;47847.75;;;-141.97;100.00
7018;BME280;3549;42.162;24.726;2023-04-19T05:16:06;47832.38;;;-141.97;100.00
7018;BME280;3549;42.162;24.726;2023-04-19T05:18:31;47907.34;;;-141.97;100.00
7018;BME280;3549;42.162;24.726;2023-04-19T05:20:57;47809.31;;;-141.97;100.00
7018;BME280;3549;42.162;24.726;2023-04-19T05:23:22;47826.63;;;-141.97;100.00
7018;BME280;3549;42.162;24.726;2023-04-19T05:25:48;47842.00;;;-141.97;100.00
7018;BME280;3549;42.162;24.726;2023-04-19T05:28:13;47767.03;;;-141.97;100.00
7018;BME280;3549;42.162;24.726;2023-04-19T05:30:38;47815.09;;;-141.97;100.00
7018;BME280;3549;42.162;24.726;2023-04-19T05:33:04;47817.00;;;-141.97;100.00
7018;BME280;3549;42.162;24.726;2023-04-19T05:35:29;47853.53;;;-141.97;100.00
7018;BME280;3549;42.162;24.726;2023-04-19T05:37:55;47809.31;;;-141.97;100.00
7018;BME280;3549;42.162;24.726;2023-04-19T05:40:20;47815.09;;;-141.97;100.00
7018;BME280;3549;42.162;24.726;2023-04-19T05:42:48;47851.59;;;-141.97;100.00
7018;BME280;3549;42.162;24.726;2023-04-19T05:45:15;47842.00;;;-141.97;100.00
7018;BME280;3549;42.162;24.726;2023-04-19T05:47:40;47836.22;;;-141.97;100.00
7018;BME280;3549;42.162;24.726;2023-04-19T05:50:06;47811.25;;;-141.97;100.00
7018;BME280;3549;42.162;24.726;2023-04-19T05:52:32;47857.38;;;-141.97;100.00
7018;BME280;3549;42.162;24.726;2023-04-19T05:54:58;47786.25;;;-141.97;100.00
7018;BME280;3549;42.162;24.726;2023-04-19T05:57:23;47767.03;;;-141.97;100.00
7018;BME280;3549;42.162;24.726;2023-04-19T05:59:50;47880.44;;;-141.97;100.00
7018;BME280;3549;42.162;24.726;2023-04-19T06:02:15;47822.78;;;-141.97;100.00
7018;BME280;3549;42.162;24.726;2023-04-19T06:04:41;47851.59;;;-141.97;100.00
7018;BME280;3549;42.162;24.726;2023-04-19T06:07:06;47840.06;;;-141.97;100.00
7018;BME280;3549;42.162;24.726;2023-04-19T06:09:32;47815.09;;;-141.97;100.00
7018;BME280;3549;42.162;24.726;2023-04-19T06:11:57;47934.25;;;-141.97;100.00
7018;BME280;3549;42.162;24.726;2023-04-19T06:14:23;47749.72;;;-141.97;100.00
7018;BME280;3549;42.162;24.726;2023-04-19T06:16:48;47818.94;;;-141.97;100.00
7018;BME280;3549;42.162;24.726;2023-04-19T06:19:14;47861.22;;;-141.97;100.00
7018;BME280;3549;42.162;24.726;2023-04-19T06:21:40;47765.09;;;-141.97;100.00
7018;BME280;3549;42.162;24.726;2023-04-19T06:24:06;47813.16;;;-141.97;100.00
7018;BME280;3549;42.162;24.726;2023-04-19T06:26:32;47811.25;;;-141.97;100.00
7018;BME280;3549;42.162;24.726;2023-04-19T06:28:57;47857.38;;;-141.97;100.00
7018;BME280;3549;42.162;24.726;2023-04-19T06:31:23;47780.47;;;-141.97;100.00
7018;BME280;3549;42.162;24.726;2023-04-19T06:33:48;47803.56;;;-141.97;100.00
7018;BME280;3549;42.162;24.726;2023-04-19T06:36:14;47776.63;;;-141.97;100.00
7018;BME280;3549;42.162;24.726;2023-04-19T06:38:39;47718.97;;;-141.97;100.00
7018;BME280;3549;42.162;24.726;2023-04-19T06:41:06;47815.09;;;-141.97;100.00
7018;BME280;3549;42.162;24.726;2023-04-19T06:43:31;47792.03;;;-141.97;100.00
7018;BME280;3549;42.162;24.726;2023-04-19T06:46:00;47834.31;;;-141.97;100.00
7018;BME280;3549;42.162;24.726;2023-04-19T06:48:27;47805.47;;;-141.97;100.00
7018;BME280;3549;42.162;24.726;2023-04-19T06:50:53;47965.03;;;-141.97;100.00
7018;BME280;3549;42.162;24.726;2023-04-19T06:53:18;47966.94;;;-141.97;100.00
7018;BME280;3549;42.162;24.726;2023-04-19T06:55:44;47786.25;;;-141.97;100.00
7018;BME280;3549;42.162;24.726;2023-04-19T06:58:10;47834.31;;;-141.97;100.00
7018;BME280;3549;42.162;24.726;2023-04-19T07:00:36;47865.06;;;-141.97;100.00
7018;BME280;3549;42.162;24.726;2023-04-19T07:03:01;47834.31;;;-141.97;100.00
7018;BME280;3549;42.162;24.726;2023-04-19T07:05:28;47913.13;;;-141.97;100.00
7018;BME280;3549;42.162;24.726;2023-04-19T07:07:53;47780.47;;;-141.97;100.00
7018;BME280;3549;42.162;24.726;2023-04-19T07:10:19;47682.47;;;-141.97;100.00
7018;BME280;3549;42.162;24.726;2023-04-19T07:12:44;47951.56;;;-141.97;100.00
7018;BME280;3549;42.162;24.726;2023-04-19T07:15:10;47730.50;;;-141.97;100.00
7018;BME280;3549;42.162;24.726;2023-04-19T07:17:36;47817.00;;;-141.97;100.00
7018;BME280;3549;42.162;24.726;2023-04-19T07:20:02;47826.63;;;-141.97;100.00
7018;BME280;3549;42.162;24.726;2023-04-19T07:22:29;47830.47;;;-141.97;100.00
7018;BME280;3549;42.162;24.726;2023-04-19T07:24:54;47909.28;;;-141.97;100.00
7018;BME280;3549;42.162;24.726;2023-04-19T07:27:20;47738.19;;;-141.97;100.00
7018;BME280;3549;42.162;24.726;2023-04-19T07:29:45;47761.25;;;-141.97;100.00
7018;BME280;3549;42.162;24.726;2023-04-19T07:32:11;47820.84;;;-141.97;100.00
7018;BME280;3549;42.162;24.726;2023-04-19T07:34:38;47840.06;;;-141.97;100.00
7018;BME280;3549;42.162;24.726;2023-04-19T07:37:04;47815.09;;;-141.97;100.00
7018;BME280;3549;42.162;24.726;2023-04-19T07:39:30;47824.69;;;-141.97;100.00
7018;BME280;3549;42.162;24.726;2023-04-19T07:41:55;47751.66;;;-141.97;100.00
7018;BME280;3549;42.162;24.726;2023-04-19T07:44:21;47826.63;;;-141.97;100.00
7018;BME280;3549;42.162;24.726;2023-04-19T07:46:46;47820.84;;;-141.97;100.00
7018;BME280;3549;42.162;24.726;2023-04-19T07:49:12;47849.69;;;-141.97;100.00
7018;BME280;3549;42.162;24.726;2023-04-19T07:51:38;47795.88;;;-141.97;100.00
7018;BME280;3549;42.162;24.726;2023-04-19T07:54:03;47770.88;;;-141.97;100.00
7018;BME280;3549;42.162;24.726;2023-04-19T07:56:28;47859.28;;;-141.97;100.00
7018;BME280;3549;42.162;24.726;2023-04-19T07:58:54;47828.53;;;-141.97;100.00
7018;BME280;3549;42.162;24.726;2023-04-19T08:01:19;47957.34;;;-141.97;100.00
7018;BME280;3549;42.162;24.726;2023-04-19T08:03:45;47795.88;;;-141.97;100.00
7018;BME280;3549;42.162;24.726;2023-04-19T08:06:11;47732.44;;;-141.97;100.00
7018;BME280;3549;42.162;24.726;2023-04-19T08:08:37;47847.75;;;-141.97;100.00
7018;BME280;3549;42.162;24.726;2023-04-19T08:11:03;47818.94;;;-141.97;100.00
7018;BME280;3549;42.162;24.726;2023-04-19T08:13:29;47786.25;;;-141.97;100.00
7018;BME280;3549;42.162;24.726;2023-04-19T08:15:54;47822.78;;;-141.97;100.00
7018;BME280;3549;42.162;24.726;2023-04-19T08:18:20;47780.47;;;-141.97;100.00
7018;BME280;3549;42.162;24.726;2023-04-19T08:20:46;47849.69;;;-141.97;100.00
7018;BME280;3549;42.162;24.726;2023-04-19T08:23:12;47830.47;;;-141.97;100.00
7018;BME280;3549;42.162;24.726;2023-04-19T08:25:37;47753.56;;;-141.97;100.00
7018;BME280;3549;42.162;24.726;2023-04-19T08:28:03;47765.09;;;-141.97;100.00
7018;BME280;3549;42.162;24.726;2023-04-19T08:30:29;47801.63;;;-141.97;100.00
7018;BME280;3549;42.162;24.726;2023-04-19T08:32:55;47818.94;;;-141.97;100.00
7018;BME280;3549;42.162;24.726;2023-04-19T08:35:20;47845.84;;;-141.97;100.00
7018;BME280;3549;42.162;24.726;2023-04-19T08:37:46;47578.66;;;-141.97;100.00
7018;BME280;3549;42.162;24.726;2023-04-19T08:40:12;47592.13;;;-141.97;100.00
7018;BME280;3549;42.162;24.726;2023-04-19T08:42:39;47911.19;;;-141.97;99.84
7018;BME280;3549;42.162;24.726;2023-04-19T08:45:05;47705.53;;;-141.97;99.89
7018;BME280;3549;42.162;24.726;2023-04-19T08:47:43;47826.63;;;-141.97;99.58
7018;BME280;3549;42.162;24.726;2023-04-19T08:50:20;47968.88;;;-141.97;97.68
7018;BME280;3549;42.162;24.726;2023-04-19T08:52:48;47667.06;;;-141.97;95.69
7018;BME280;3549;42.162;24.726;2023-04-19T08:55:14;47638.25;;;-141.97;94.81
7018;BME280;3549;42.162;24.726;2023-04-19T08:57:40;47895.81;;;-141.97;95.63
7018;BME280;3549;42.162;24.726;2023-04-19T09:00:06;47861.22;;;-141.97;96.47
7018;BME280;3549;42.162;24.726;2023-04-19T09:02:48;47617.09;;;-141.97;96.45
7018;BME280;3549;42.162;24.726;2023-04-19T09:05:15;47630.56;;;-141.97;93.86
7018;BME280;3549;42.162;24.726;2023-04-19T09:07:43;47770.88;;;-141.97;95.31
7018;BME280;3549;42.162;24.726;2023-04-19T09:10:14;47759.34;;;-141.97;94.63
7018;BME280;3549;42.162;24.726;2023-04-19T09:12:40;47551.75;;;-141.97;94.82
7018;BME280;3549;42.162;24.726;2023-04-19T09:15:07;47880.44;;;-141.97;96.76
7018;BME280;3549;42.162;24.726;2023-04-19T09:17:37;47951.56;;;-141.97;97.95
7018;BME280;3549;42.162;24.726;2023-04-19T09:20:04;47797.78;;;-141.97;98.34
7018;BME280;3549;42.162;24.726;2023-04-19T09:22:30;47840.06;;;-141.97;98.24
7018;BME280;3549;42.162;24.726;2023-04-19T09:24:57;47817.00;;;-141.97;99.94
7018;BME280;3549;42.162;24.726;2023-04-19T09:27:32;47940.03;;;-141.97;99.96
7018;BME280;3549;42.162;24.726;2023-04-19T09:30:00;47811.25;;;-141.97;99.38
7018;BME280;3549;42.162;24.726;2023-04-19T09:32:26;47980.41;;;-141.97;96.40
7018;BME280;3549;42.162;24.726;2023-04-19T09:34:57;47824.69;;;-141.97;95.16
7018;BME280;3549;42.162;24.726;2023-04-19T09:37:23;47815.09;;;-141.97;93.82
7018;BME280;3549;42.162;24.726;2023-04-19T09:39:49;47620.94;;;-141.97;94.58
7018;BME280;3549;42.162;24.726;2023-04-19T09:42:16;47765.09;;;-141.97;91.98
7018;BME280;3549;42.162;24.726;2023-04-19T09:44:57;47851.59;;;-141.97;91.03
7018;BME280;3549;42.162;24.726;2023-04-19T09:47:27;47768.94;;;-141.97;89.64
7018;BME280;3549;42.162;24.726;2023-04-19T09:50:10;47815.09;;;-141.97;91.29
7018;BME280;3549;42.162;24.726;2023-04-19T09:52:36;47784.34;;;-141.97;88.20
7018;BME280;3549;42.162;24.726;2023-04-19T09:55:03;47818.94;;;-141.97;88.19
7018;BME280;3549;42.162;24.726;2023-04-19T09:57:30;47694.00;;;-141.97;86.89
7018;BME280;3549;42.162;24.726;2023-04-19T09:59:57;47615.19;;;-141.97;52.19
7018;BME280;3549;42.162;24.726;2023-04-19T10:02:25;47949.66;;;-141.97;52.46
7018;BME280;3549;42.162;24.726;2023-04-19T10:04:52;47546.00;;;-141.97;51.38
7018;BME280;3549;42.162;24.726;2023-04-19T10:07:20;47745.88;;;-141.97;51.71
7018;BME280;3549;42.162;24.726;2023-04-19T10:09:48;47849.69;;;-141.97;51.79
7018;BME280;3549;42.162;24.726;2023-04-19T10:12:14;47620.94;;;-141.97;51.96
7018;BME280;3549;42.162;24.726;2023-04-19T10:14:41;47726.66;;;-141.97;52.40
7018;BME280;3549;42.162;24.726;2023-04-19T10:17:07;47630.56;;;-141.97;52.76
7018;BME280;3549;42.162;24.726;2023-04-19T10:19:34;47720.91;;;-141.97;51.52
7018;BME280;3549;42.162;24.726;2023-04-19T10:22:02;47647.84;;;-141.97;50.62
7018;BME280;3549;42.162;24.726;2023-04-19T10:24:32;47965.03;;;-141.97;50.11
7018;BME280;3549;42.162;24.726;2023-04-19T10:30:05;47840.06;;;-141.97;51.56
7018;BME280;3549;42.162;24.726;2023-04-19T10:32:41;47918.88;;;-141.97;48.95
7018;BME280;3549;42.162;24.726;2023-04-19T10:35:16;47843.91;;;-141.97;48.58
7018;BME280;3549;42.162;24.726;2023-04-19T10:43:28;47826.63;;;-141.97;47.42
7018;BME280;3549;42.162;24.726;2023-04-19T10:46:07;47761.25;;;-141.97;47.33
7018;BME280;3549;42.162;24.726;2023-04-19T10:48:35;47474.88;;;-141.97;47.25
7018;BME280;3549;42.162;24.726;2023-04-19T10:51:12;47893.91;;;-141.97;47.10
7018;BME280;3549;42.162;24.726;2023-04-19T10:54:08;47853.53;;;-141.97;47.86
7018;BME280;3549;42.162;24.726;2023-04-19T10:59:14;47647.84;;;-141.97;46.85
7018;BME280;3549;42.162;24.726;2023-04-19T11:01:50;47780.47;;;-141.97;47.22
7018;BME280;3549;42.162;24.726;2023-04-19T11:07:17;47949.66;;;-141.97;47.50
7018;BME280;3549;42.162;24.726;2023-04-19T11:09:54;47874.69;;;-141.97;46.24
7018;BME280;3549;42.162;24.726;2023-04-19T11:12:20;47738.19;;;-141.97;44.59
7018;BME280;3549;42.162;24.726;2023-04-19T11:14:58;47797.78;;;-141.97;44.49
7018;BME280;3549;42.162;24.726;2023-04-19T11:17:41;47920.81;;;-141.97;44.23
7018;BME280;3549;42.162;24.726;2023-04-19T11:20:08;47913.13;;;-141.97;43.65
7018;BME280;3549;42.162;24.726;2023-04-19T11:22:38;47759.34;;;-141.97;43.73
7018;BME280;3549;42.162;24.726;2023-04-19T11:25:11;47578.66;;;-141.97;44.33
7018;BME280;3549;42.162;24.726;2023-04-19T11:27:41;47745.88;;;-141.97;43.55
7018;BME280;3549;42.162;24.726;2023-04-19T11:32:44;47603.66;;;-141.97;42.53
7018;BME280;3549;42.162;24.726;2023-04-19T11:35:10;47630.56;;;-141.97;42.53
7018;BME280;3549;42.162;24.726;2023-04-19T11:37:36;47438.34;;;-141.97;42.89
7018;BME280;3549;42.162;24.726;2023-04-19T11:40:03;47857.38;;;-141.97;42.40
7018;BME280;3549;42.162;24.726;2023-04-19T11:42:31;47722.81;;;-141.97;43.92
7018;BME280;3549;42.162;24.726;2023-04-19T11:44:57;47526.75;;;-141.97;44.97
7018;BME280;3549;42.162;24.726;2023-04-19T11:47:25;47524.84;;;-141.97;46.79
7018;BME280;3549;42.162;24.726;2023-04-19T11:49:51;47588.28;;;-141.97;46.76
7018;BME280;3549;42.162;24.726;2023-04-19T11:52:22;47793.94;;;-141.97;46.79
7018;BME280;3549;42.162;24.726;2023-04-19T11:54:57;47613.25;;;-141.97;47.21
7018;BME280;3549;42.162;24.726;2023-04-19T11:57:47;47759.34;;;-141.97;46.47
7018;BME280;3549;42.162;24.726;2023-04-19T12:00:13;47620.94;;;-141.97;45.51
7018;BME280;3549;42.162;24.726;2023-04-19T12:02:40;47574.81;;;-141.97;46.10
7018;BME280;3549;42.162;24.726;2023-04-19T12:05:10;47567.13;;;-141.97;48.44
7018;BME280;3549;42.162;24.726;2023-04-19T12:07:36;47549.84;;;-141.97;52.17
7018;BME280;3549;42.162;24.726;2023-04-19T12:10:10;47755.50;;;-141.97;54.43
7018;BME280;3549;42.162;24.726;2023-04-19T12:12:36;47955.41;;;-141.97;59.32
7018;BME280;3549;42.162;24.726;2023-04-19T12:15:01;47755.50;;;-141.97;62.40
7018;BME280;3549;42.162;24.726;2023-04-19T12:17:26;47553.69;;;-141.97;64.56
7018;BME280;3549;42.162;24.726;2023-04-19T12:19:52;47890.06;;;-141.97;68.74
7018;BME280;3549;42.162;24.726;2023-04-19T12:22:18;47726.66;;;-141.97;71.21
7018;BME280;3549;42.162;24.726;2023-04-19T12:24:53;47692.06;;;-141.97;72.92
7018;BME280;3549;42.162;24.726;2023-04-19T12:27:20;47628.63;;;-141.97;75.79
7018;BME280;3549;42.162;24.726;2023-04-19T12:29:45;47632.47;;;-141.97;76.37
7018;BME280;3549;42.162;24.726;2023-04-19T12:32:11;47736.28;;;-141.97;68.42
7018;BME280;3549;42.162;24.726;2023-04-19T12:34:40;47670.91;;;-141.97;69.89
7018;BME280;3549;42.162;24.726;2023-04-19T12:37:05;47492.16;;;-141.97;76.11
7018;BME280;3549;42.162;24.726;2023-04-19T12:39:31;47793.94;;;-141.97;73.19
7018;BME280;3549;42.162;24.726;2023-04-19T12:42:00;47778.56;;;-141.97;78.13
7018;BME280;3549;42.162;24.726;2023-04-19T12:44:25;47578.66;;;-141.97;84.92
7018;BME280;3549;42.162;24.726;2023-04-19T12:46:51;47805.47;;;-141.97;82.72
7018;BME280;3549;42.162;24.726;2023-04-19T12:49:19;47695.91;;;-141.97;70.69
7018;BME280;3549;42.162;24.726;2023-04-19T12:51:44;47649.78;;;-141.97;60.93
7018;BME280;3549;42.162;24.726;2023-04-19T12:54:12;47738.19;;;-141.97;55.14
7018;BME280;3549;42.162;24.726;2023-04-19T12:56:37;47742.03;;;-141.97;56.77